Time;durP1;ratioP1;P1;durP2;ratioP2;P2;SDS_P1;SDS_P2;PMS_P1;PMS_P2;Temp;Humidity;BMP_temperature;BMP_pressure;BME280_temperature;BME280_humidity;BME280_pressure;Samples;Min_cycle;Max_cycle;Signal;HPM_P1;HPM_P2
2023/12/01 00:00:54;;;;;;;;;;;;;;;;;;5114202;28;20242;-49
2023/12/01 00:03:20;;;;;;;;;;;;;;;;;;5114481;28;20015;-48
2023/12/01 00:05:45;;;;;;;;;;;;;;;;;;5115106;28;20002;-49
2023/12/01 00:08:11;;;;;;;;;;;;;;;;;;5114759;28;19959;-49
2023/12/01 00:10:36;;;;;;;;;;;;;;;;;;5115065;28;20023;-50
2023/12/01 00:13:02;;;;;;;;;;;;;;;;;;5114694;28;19928;-49
2023/12/01 00:15:27;;;;;;;;;;;;;;;;;;5114390;28;19931;-48
2023/12/01 00:17:53;;;;;;;;;;;;;;;;;;5114926;28;19969;-48
2023/12/01 00:20:18;;;;;;;;;;;;;;;;;;5114568;28;19931;-49
2023/12/01 00:22:44;;;;;;;;;;;;;;;;;;5113399;28;19967;-49
2023/12/01 00:25:09;;;;;;;;;;;;;;;;;;5114483;28;20061;-48
2023/12/01 00:27:35;;;;;;;;;;;;;;;;;;5114620;28;19966;-47
2023/12/01 00:30:00;;;;;;;;;;;;;;;;;;5113797;28;19963;-49
2023/12/01 00:32:26;;;;;;;;;;;;;;;;;;5114456;28;20446;-49
2023/12/01 00:34:51;;;;;;;;;;;;;;;;;;5114404;28;20294;-49
2023/12/01 00:37:17;;;;;;;;;;;;;;;;;;5114492;28;19927;-49
2023/12/01 00:39:42;;;;;;;;;;;;;;;;;;5114283;28;20445;-49
2023/12/01 00:42:08;;;;;;;;;;;;;;;;;;5114000;28;20372;-49
2023/12/01 00:44:33;;;;;;;;;;;;;;;;;;5114203;28;19950;-49
2023/12/01 00:46:58;;;;;;;;;;;;;;;;;;5113159;28;19995;-49
2023/12/01 00:49:24;;;;;;;;;;;;;;;;;;5114366;28;19969;-46
2023/12/01 00:51:49;;;;;;;;;;;;;;;;;;5113962;28;20049;-49
2023/12/01 00:54:15;;;;;;;;;;;;;;;;;;5113987;28;19981;-48
2023/12/01 00:56:40;;;;;;;;;;;;;;;;;;5114089;28;19924;-47
2023/12/01 00:59:07;;;;;;;;;;;;;;;;;;5112131;28;19924;-49
2023/12/01 01:01:35;;;;;;;;;;;;;;;;;;5113937;28;20023;-48
2023/12/01 01:04:00;;;;;;;;;;;;;;;;;;5114227;28;19924;-48
2023/12/01 01:06:26;;;;;;;;;;;;;;;;;;5114128;28;20010;-49
2023/12/01 01:08:51;;;;;;;;;;;;;;;;;;5113981;28;19963;-49
2023/12/01 01:11:17;;;;;;;;;;;;;;;;;;5114127;28;19942;-49
2023/12/01 01:13:45;;;;;;;;;;;;;;;;;;5113558;28;19935;-50
2023/12/01 01:16:10;;;;;;;;;;;;;;;;;;5113570;28;20002;-50
2023/12/01 01:18:36;;;;;;;;;;;;;;;;;;5114120;28;20022;-47
2023/12/01 01:21:02;;;;;;;;;;;;;;;;;;5113531;28;19963;-49
2023/12/01 01:23:27;;;;;;;;;;;;;;;;;;5112982;28;19939;-49
2023/12/01 01:25:53;;;;;;;;;;;;;;;;;;5113111;28;19963;-49
2023/12/01 01:28:18;;;;;;;;;;;;;;;;;;5113938;28;20022;-48
2023/12/01 01:30:44;;;;;;;;;;;;;;;;;;5113242;28;19924;-49
2023/12/01 01:33:09;;;;;;;;;;;;;;;;;;5113415;28;19931;-49
2023/12/01 01:35:35;;;;;;;;;;;;;;;;;;5113346;28;20009;-47
2023/12/01 01:38:00;;;;;;;;;;;;;;;;;;5113455;28;20389;-45
2023/12/01 01:40:25;;;;;;;;;;;;;;;;;;5113653;28;19927;-48
2023/12/01 01:42:51;;;;;;;;;;;;;;;;;;5113154;28;19924;-48
2023/12/01 01:45:16;;;;;;;;;;;;;;;;;;5112992;28;20375;-49
2023/12/01 01:47:42;;;;;;;;;;;;;;;;;;5112838;28;19951;-48
2023/12/01 01:50:07;;;;;;;;;;;;;;;;;;5113063;28;19923;-49
2023/12/01 01:52:33;;;;;;;;;;;;;;;;;;5112874;28;19927;-49
2023/12/01 01:54:58;;;;;;;;;;;;;;;;;;5112917;28;19966;-50
2023/12/01 01:57:24;;;;;;;;;;;;;;;;;;5112401;28;20445;-47
2023/12/01 01:59:49;;;;;;;;;;;;;;;;;;5112590;28;20395;-48
2023/12/01 02:02:15;;;;;;;;;;;;;;;;;;5112844;28;20446;-49
2023/12/01 02:04:40;;;;;;;;;;;;;;;;;;5113159;28;19967;-49
2023/12/01 02:07:08;;;;;;;;;;;;;;;;;;5113082;28;20019;-48
2023/12/01 02:09:33;;;;;;;;;;;;;;;;;;5113050;28;19965;-49
2023/12/01 02:11:59;;;;;;;;;;;;;;;;;;5113277;28;19924;-47
2023/12/01 02:14:25;;;;;;;;;;;;;;;;;;5112173;28;19928;-48
2023/12/01 02:16:50;;;;;;;;;;;;;;;;;;5112073;28;20018;-49
2023/12/01 02:19:16;;;;;;;;;;;;;;;;;;5112194;28;19930;-48
2023/12/01 02:21:41;;;;;;;;;;;;;;;;;;5112065;28;19955;-49
2023/12/01 02:24:08;;;;;;;;;;;;;;;;;;5112511;28;19978;-48
2023/12/01 02:26:34;;;;;;;;;;;;;;;;;;5111897;28;19951;-48
2023/12/01 02:28:59;;;;;;;;;;;;;;;;;;5112601;28;20038;-50
2023/12/01 02:31:25;;;;;;;;;;;;;;;;;;5112684;28;19931;-50
2023/12/01 02:33:53;;;;;;;;;;;;;;;;;;5112202;28;20244;-49
2023/12/01 02:36:19;;;;;;;;;;;;;;;;;;5112222;28;19923;-49
2023/12/01 02:38:44;;;;;;;;;;;;;;;;;;5112141;28;20378;-49
2023/12/01 02:41:10;;;;;;;;;;;;;;;;;;5112346;28;19923;-49
2023/12/01 02:43:35;;;;;;;;;;;;;;;;;;5112208;28;20458;-49
2023/12/01 02:46:01;;;;;;;;;;;;;;;;;;5112708;28;19963;-48
2023/12/01 02:48:26;;;;;;;;;;;;;;;;;;5112235;28;19966;-48
2023/12/01 02:50:52;;;;;;;;;;;;;;;;;;5112472;28;20252;-50
2023/12/01 02:53:17;;;;;;;;;;;;;;;;;;5112312;28;20550;-47
2023/12/01 02:55:43;;;;;;;;;;;;;;;;;;5112007;28;19931;-48
2023/12/01 02:58:09;;;;;;;;;;;;;;;;;;5112189;28;20275;-50
2023/12/01 03:00:35;;;;;;;;;;;;;;;;;;5112387;28;20400;-47
2023/12/01 03:03:00;;;;;;;;;;;;;;;;;;5111396;28;19924;-48
2023/12/01 03:05:26;;;;;;;;;;;;;;;;;;5112433;28;20375;-49
2023/12/01 03:07:51;;;;;;;;;;;;;;;;;;5112137;28;20320;-49
2023/12/01 03:10:17;;;;;;;;;;;;;;;;;;5113752;28;19931;-47
2023/12/01 03:12:42;;;;;;;;;;;;;;;;;;5116004;28;19924;-49
2023/12/01 03:15:08;;;;;;;;;;;;;;;;;;5114825;28;19924;-47
2023/12/01 03:17:35;;;;;;;;;;;;;;;;;;5115882;28;19980;-43
2023/12/01 03:20:00;;;;;;;;;;;;;;;;;;5115758;28;19936;-49
2023/12/01 03:22:26;;;;;;;;;;;;;;;;;;5115502;28;19924;-48
2023/12/01 03:24:53;;;;;;;;;;;;;;;;;;5115272;28;19946;-49
2023/12/01 03:27:18;;;;;;;;;;;;;;;;;;5115153;28;19927;-49
2023/12/01 03:29:44;;;;;;;;;;;;;;;;;;5112417;28;20368;-47
2023/12/01 03:32:09;;;;;;;;;;;;;;;;;;5115571;28;19924;-47
2023/12/01 03:34:35;;;;;;;;;;;;;;;;;;5115073;28;19924;-48
2023/12/01 03:37:00;;;;;;;;;;;;;;;;;;5115212;28;19924;-46
2023/12/01 03:39:26;;;;;;;;;;;;;;;;;;5115017;28;19972;-48
2023/12/01 03:41:51;;;;;;;;;;;;;;;;;;5115225;28;19955;-46
2023/12/01 03:44:16;;;;;;;;;;;;;;;;;;5114969;28;20036;-48
2023/12/01 03:46:42;;;;;;;;;;;;;;;;;;5115457;28;20373;-49
2023/12/01 03:49:07;;;;;;;;;;;;;;;;;;5114993;28;20349;-47
2023/12/01 03:51:33;;;;;;;;;;;;;;;;;;5114861;28;20003;-47
2023/12/01 03:53:58;;;;;;;;;;;;;;;;;;5115072;28;19924;-48
2023/12/01 03:56:24;;;;;;;;;;;;;;;;;;5115056;28;20009;-50
2023/12/01 03:58:49;;;;;;;;;;;;;;;;;;5115241;28;20374;-47
2023/12/01 04:01:15;;;;;;;;;;;;;;;;;;5115057;28;19928;-48
2023/12/01 04:03:40;;;;;;;;;;;;;;;;;;5113859;28;19923;-49
2023/12/01 04:06:07;;;;;;;;;;;;;;;;;;5115301;28;20018;-49
2023/12/01 04:08:33;;;;;;;;;;;;;;;;;;5114649;28;19923;-48
2023/12/01 04:10:59;;;;;;;;;;;;;;;;;;5115283;28;19970;-49
2023/12/01 04:13:25;;;;;;;;;;;;;;;;;;5115018;28;19928;-48
2023/12/01 04:15:51;;;;;;;;;;;;;;;;;;5115103;28;19924;-49
2023/12/01 04:18:16;;;;;;;;;;;;;;;;;;5114894;28;19946;-49
2023/12/01 04:20:42;;;;;;;;;;;;;;;;;;5114620;28;19963;-49
2023/12/01 04:23:10;;;;;;;;;;;;;;;;;;5114396;28;19924;-46
2023/12/01 04:25:37;;;;;;;;;;;;;;;;;;5114626;28;19924;-49
2023/12/01 04:28:03;;;;;;;;;;;;;;;;;;5114490;28;19924;-48
2023/12/01 04:30:28;;;;;;;;;;;;;;;;;;5113905;28;20316;-49
2023/12/01 04:32:54;;;;;;;;;;;;;;;;;;5094376;28;19924;-48
2023/12/01 04:35:21;;;;;;;;;;;;;;;;;;5096041;28;19935;-46
2023/12/01 04:37:46;;;;;;;;;;;;;;;;;;5113731;28;19924;-49
2023/12/01 04:40:14;;;;;;;;;;;;;;;;;;5114231;28;20330;-49
2023/12/01 04:42:40;;;;;;;;;;;;;;;;;;5114469;28;19931;-49
2023/12/01 04:45:07;;;;;;;;;;;;;;;;;;5113861;28;19988;-49
2023/12/01 04:47:33;;;;;;;;;;;;;;;;;;5114676;28;19927;-46
2023/12/01 04:49:58;;;;;;;;;;;;;;;;;;5114380;28;19923;-48
2023/12/01 04:52:24;;;;;;;;;;;;;;;;;;5114231;28;20012;-49
2023/12/01 04:54:51;;;;;;;;;;;;;;;;;;5114588;28;19927;-49
2023/12/01 04:57:17;;;;;;;;;;;;;;;;;;5113880;28;20463;-49
2023/12/01 04:59:43;;;;;;;;;;;;;;;;;;5113840;28;20294;-47
2023/12/01 05:02:08;;;;;;;;;;;;;;;;;;5113733;28;20378;-48
2023/12/01 05:04:34;;;;;;;;;;;;;;;;;;5113387;28;19971;-48
2023/12/01 05:06:59;;;;;;;;;;;;;;;;;;5114273;28;19967;-47
2023/12/01 05:09:26;;;;;;;;;;;;;;;;;;5113665;28;19923;-48
2023/12/01 05:11:52;;;;;;;;;;;;;;;;;;5114282;28;20355;-49
2023/12/01 05:14:17;;;;;;;;;;;;;;;;;;5113835;28;20015;-49
2023/12/01 05:16:43;;;;;;;;;;;;;;;;;;5114019;28;20413;-46
2023/12/01 05:19:08;;;;;;;;;;;;;;;;;;5113424;28;20010;-47
2023/12/01 05:21:33;;;;;;;;;;;;;;;;;;5113635;28;19932;-45
2023/12/01 05:23:59;;;;;;;;;;;;;;;;;;5113306;28;20015;-54
2023/12/01 05:26:25;;;;;;;;;;;;;;;;;;5113621;28;20490;-52
2023/12/01 05:28:50;;;;;;;;;;;;;;;;;;5113534;28;19931;-52
2023/12/01 05:31:17;;;;;;;;;;;;;;;;;;5113045;28;19931;-48
2023/12/01 05:33:46;;;;;;;;;;;;;;;;;;5111476;28;19966;-46
2023/12/01 05:36:19;;;;;;;;;;;;;;;;;;5113877;28;19975;-45
2023/12/01 05:38:45;;;;;;;;;;;;;;;;;;5112323;28;20030;-49
2023/12/01 05:41:10;;;;;;;;;;;;;;;;;;5113570;28;19972;-43
2023/12/01 05:43:38;;;;;;;;;;;;;;;;;;5113183;28;19934;-44
2023/12/01 05:46:04;;;;;;;;;;;;;;;;;;5113361;28;19970;-46
2023/12/01 05:48:32;;;;;;;;;;;;;;;;;;5113373;28;19923;-43
2023/12/01 05:50:58;;;;;;;;;;;;;;;;;;5113448;28;19969;-44
2023/12/01 05:53:23;;;;;;;;;;;;;;;;;;5113233;28;19970;-43
2023/12/01 05:55:49;;;;;;;;;;;;;;;;;;5113583;28;19998;-43
2023/12/01 05:58:14;;;;;;;;;;;;;;;;;;5112745;28;19965;-47
2023/12/01 06:00:40;;;;;;;;;;;;;;;;;;5113061;28;20001;-47
2023/12/01 06:03:06;;;;;;;;;;;;;;;;;;5112882;28;19924;-48
2023/12/01 06:05:31;;;;;;;;;;;;;;;;;;5112707;28;20014;-44
2023/12/01 06:07:57;;;;;;;;;;;;;;;;;;5112766;28;20379;-46
2023/12/01 06:10:22;;;;;;;;;;;;;;;;;;5112897;28;20022;-48
2023/12/01 06:12:47;;;;;;;;;;;;;;;;;;5112009;28;20348;-48
2023/12/01 06:15:13;;;;;;;;;;;;;;;;;;5112159;28;20019;-48
2023/12/01 06:17:38;;;;;;;;;;;;;;;;;;5112524;28;19927;-46
2023/12/01 06:20:04;;;;;;;;;;;;;;;;;;5111654;28;19968;-44
2023/12/01 06:22:29;;;;;;;;;;;;;;;;;;5112136;28;20356;-44
2023/12/01 06:24:55;;;;;;;;;;;;;;;;;;5112005;28;19963;-48
2023/12/01 06:27:22;;;;;;;;;;;;;;;;;;5112513;28;20022;-53
2023/12/01 06:29:47;;;;;;;;;;;;;;;;;;5112170;28;19924;-46
2023/12/01 06:32:13;;;;;;;;;;;;;;;;;;5116052;28;20014;-47
2023/12/01 06:34:39;;;;;;;;;;;;;;;;;;5111633;28;19924;-45
2023/12/01 06:37:04;;;;;;;;;;;;;;;;;;5112305;28;20016;-47
2023/12/01 06:39:30;;;;;;;;;;;;;;;;;;5110775;28;19963;-49
2023/12/01 06:41:55;;;;;;;;;;;;;;;;;;5112758;28;19951;-44
2023/12/01 06:44:21;;;;;;;;;;;;;;;;;;5114920;28;19930;-47
2023/12/01 06:46:46;;;;;;;;;;;;;;;;;;5112051;28;20375;-48
2023/12/01 06:49:11;;;;;;;;;;;;;;;;;;5111857;28;19928;-46
2023/12/01 06:51:37;;;;;;;;;;;;;;;;;;5110429;28;19930;-44
2023/12/01 06:54:02;;;;;;;;;;;;;;;;;;5110008;28;20397;-49
2023/12/01 06:56:28;;;;;;;;;;;;;;;;;;5109728;28;20397;-45
2023/12/01 06:58:53;;;;;;;;;;;;;;;;;;5110623;28;19927;-46
2023/12/01 07:01:19;;;;;;;;;;;;;;;;;;5118526;28;20027;-47
2023/12/01 07:03:44;;;;;;;;;;;;;;;;;;5112719;28;20448;-49
2023/12/01 07:06:10;;;;;;;;;;;;;;;;;;5113608;28;19924;-50
2023/12/01 07:08:36;;;;;;;;;;;;;;;;;;5108861;28;19958;-48
2023/12/01 07:11:03;;;;;;;;;;;;;;;;;;5107151;28;20513;-46
2023/12/01 07:13:29;;;;;;;;;;;;;;;;;;5108765;28;19923;-48
2023/12/01 07:15:55;;;;;;;;;;;;;;;;;;5111914;28;19924;-47
2023/12/01 07:18:20;;;;;;;;;;;;;;;;;;5110203;28;19930;-47
2023/12/01 07:20:46;;;;;;;;;;;;;;;;;;5106508;28;19939;-47
2023/12/01 07:23:11;;;;;;;;;;;;;;;;;;5110744;28;19931;-48
2023/12/01 07:25:37;;;;;;;;;;;;;;;;;;5108043;28;20317;-48
2023/12/01 07:28:03;;;;;;;;;;;;;;;;;;5106713;28;20342;-48
2023/12/01 07:30:29;;;;;;;;;;;;;;;;;;5110809;28;20287;-49
2023/12/01 07:32:54;;;;;;;;;;;;;;;;;;5110729;28;19924;-49
2023/12/01 07:35:20;;;;;;;;;;;;;;;;;;5108444;28;19959;-49
2023/12/01 07:37:45;;;;;;;;;;;;;;;;;;5110010;28;19924;-50
2023/12/01 07:40:11;;;;;;;;;;;;;;;;;;5105195;28;20435;-48
2023/12/01 07:42:36;;;;;;;;;;;;;;;;;;5109124;28;20006;-48
2023/12/01 07:45:02;;;;;;;;;;;;;;;;;;5109575;28;19972;-48
2023/12/01 07:47:27;;;;;;;;;;;;;;;;;;5105150;28;19924;-49
2023/12/01 07:49:53;;;;;;;;;;;;;;;;;;5103991;28;19967;-49
2023/12/01 07:52:19;;;;;;;;;;;;;;;;;;5108230;28;19932;-49
2023/12/01 07:54:45;;;;;;;;;;;;;;;;;;5102089;28;19924;-49
2023/12/01 07:57:10;;;;;;;;;;;;;;;;;;5106501;28;19924;-50
2023/12/01 07:59:36;;;;;;;;;;;;;;;;;;5108098;28;20383;-44
2023/12/01 08:02:01;;;;;;;;;;;;;;;;;;5102533;28;19971;-44
2023/12/01 08:04:29;;;;;;;;;;;;;;;;;;5106874;28;19934;-44
2023/12/01 08:06:56;;;;;;;;;;;;;;;;;;5107275;28;19924;-48
2023/12/01 08:09:21;;;;;;;;;;;;;;;;;;5107284;28;19931;-45
2023/12/01 08:11:47;;;;;;;;;;;;;;;;;;5109034;28;20282;-43
2023/12/01 08:14:12;;;;;;;;;;;;;;;;;;5109828;28;19928;-47
2023/12/01 08:16:37;;;;;;;;;;;;;;;;;;5111359;28;19932;-47
2023/12/01 08:19:03;;;;;;;;;;;;;;;;;;5110355;28;19931;-48
2023/12/01 08:21:31;;;;;;;;;;;;;;;;;;5112238;28;19924;-45
2023/12/01 08:23:56;;;;;;;;;;;;;;;;;;5110735;28;19924;-49
2023/12/01 08:26:22;;;;;;;;;;;;;;;;;;5108499;28;19924;-50
2023/12/01 08:28:47;;;;;;;;;;;;;;;;;;5108500;28;20081;-48
2023/12/01 08:31:12;;;;;;;;;;;;;;;;;;5110514;28;20010;-49
2023/12/01 08:33:38;;;;;;;;;;;;;;;;;;5109843;28;20434;-46
2023/12/01 08:36:03;;;;;;;;;;;;;;;;;;5103390;28;20022;-48
2023/12/01 08:38:29;;;;;;;;;;;;;;;;;;5109028;28;20276;-49
2023/12/01 08:40:54;;;;;;;;;;;;;;;;;;5108167;28;20304;-49
2023/12/01 08:43:20;;;;;;;;;;;;;;;;;;5111186;28;19932;-46
2023/12/01 08:45:46;;;;;;;;;;;;;;;;;;5110911;28;19924;-46
2023/12/01 08:48:11;;;;;;;;;;;;;;;;;;5101834;28;19970;-42
2023/12/01 08:50:37;;;;;;;;;;;;;;;;;;5093948;28;19923;-48
2023/12/01 08:53:02;;;;;;;;;;;;;;;;;;5096001;28;20151;-48
2023/12/01 08:55:28;;;;;;;;;;;;;;;;;;5100950;28;20401;-47
2023/12/01 08:57:53;;;;;;;;;;;;;;;;;;5098089;28;20386;-44
2023/12/01 09:00:20;;;;;;;;;;;;;;;;;;5097356;28;19924;-48
2023/12/01 09:02:46;;;;;;;;;;;;;;;;;;5110516;28;19928;-45
2023/12/01 09:05:11;;;;;;;;;;;;;;;;;;5112759;28;19967;-47
2023/12/01 09:07:37;;;;;;;;;;;;;;;;;;5106112;28;19930;-43
2023/12/01 09:10:02;;;;;;;;;;;;;;;;;;5109894;28;19924;-48
2023/12/01 09:12:28;;;;;;;;;;;;;;;;;;5108289;28;20430;-48
2023/12/01 09:14:53;;;;;;;;;;;;;;;;;;5110746;28;19930;-49
2023/12/01 09:17:19;;;;;;;;;;;;;;;;;;5111168;28;20325;-48
2023/12/01 09:19:44;;;;;;;;;;;;;;;;;;5106901;28;19928;-52
2023/12/01 09:22:10;;;;;;;;;;;;;;;;;;5104756;28;19968;-45
2023/12/01 09:24:35;;;;;;;;;;;;;;;;;;5107587;28;19951;-49
2023/12/01 09:27:01;;;;;;;;;;;;;;;;;;5109767;28;19927;-50
2023/12/01 09:29:26;;;;;;;;;;;;;;;;;;5110087;28;19924;-51
2023/12/01 09:31:52;;;;;;;;;;;;;;;;;;5111025;28;19967;-49
2023/12/01 09:34:17;;;;;;;;;;;;;;;;;;5110768;28;19927;-47
2023/12/01 09:36:43;;;;;;;;;;;;;;;;;;5105275;28;20275;-49
2023/12/01 09:39:08;;;;;;;;;;;;;;;;;;5107691;28;19924;-49
2023/12/01 09:41:35;;;;;;;;;;;;;;;;;;5110066;28;20354;-49
2023/12/01 09:44:00;;;;;;;;;;;;;;;;;;5105927;28;19962;-47
2023/12/01 09:46:34;;;;;;;;;;;;;;;;;;5099888;28;20272;-48
2023/12/01 09:49:00;;;;;;;;;;;;;;;;;;5106286;28;20688;-46
2023/12/01 09:51:25;;;;;;;;;;;;;;;;;;5104618;28;20391;-54
2023/12/01 09:53:51;;;;;;;;;;;;;;;;;;5104962;28;19924;-47
2023/12/01 09:56:19;;;;;;;;;;;;;;;;;;5100569;28;19963;-48
2023/12/01 09:58:44;;;;;;;;;;;;;;;;;;5105485;28;19947;-50
2023/12/01 10:01:10;;;;;;;;;;;;;;;;;;5106640;28;19924;-49
2023/12/01 10:03:35;;;;;;;;;;;;;;;;;;5102425;28;20276;-50
2023/12/01 10:06:01;;;;;;;;;;;;;;;;;;5107751;28;20060;-48
2023/12/01 10:08:27;;;;;;;;;;;;;;;;;;5109037;28;19930;-50
2023/12/01 10:10:52;;;;;;;;;;;;;;;;;;5109250;28;19923;-50
2023/12/01 10:13:19;;;;;;;;;;;;;;;;;;5107765;28;19975;-48
2023/12/01 10:15:44;;;;;;;;;;;;;;;;;;5107271;28;19924;-51
2023/12/01 10:18:10;;;;;;;;;;;;;;;;;;5105972;28;19931;-45
2023/12/01 10:20:39;;;;;;;;;;;;;;;;;;5107932;28;19924;-50
2023/12/01 10:23:05;;;;;;;;;;;;;;;;;;5105713;28;20014;-45
2023/12/01 10:25:30;;;;;;;;;;;;;;;;;;5105277;28;20281;-47
2023/12/01 10:27:56;;;;;;;;;;;;;;;;;;5106270;28;20006;-45
2023/12/01 10:30:22;;;;;;;;;;;;;;;;;;5105601;28;20018;-46
2023/12/01 10:32:50;;;;;;;;;;;;;;;;;;5041763;28;19933;-50
2023/12/01 10:35:16;;;;;;;;;;;;;;;;;;5042374;28;19924;-47
2023/12/01 10:37:43;;;;;;;;;;;;;;;;;;5037140;28;19932;-46
2023/12/01 10:40:09;;;;;;;;;;;;;;;;;;5040627;28;19924;-46
2023/12/01 10:42:34;;;;;;;;;;;;;;;;;;5036527;28;20007;-48
2023/12/01 10:45:00;;;;;;;;;;;;;;;;;;5045553;28;20384;-46
2023/12/01 10:47:25;;;;;;;;;;;;;;;;;;5049268;28;20015;-47
2023/12/01 10:49:51;;;;;;;;;;;;;;;;;;5038713;28;19960;-48
2023/12/01 10:52:16;;;;;;;;;;;;;;;;;;5109207;28;19928;-46
2023/12/01 10:54:43;;;;;;;;;;;;;;;;;;5108040;28;20557;-46
2023/12/01 10:57:09;;;;;;;;;;;;;;;;;;5103499;28;19928;-49
2023/12/01 10:59:34;;;;;;;;;;;;;;;;;;5103394;28;20032;-49
2023/12/01 11:02:00;;;;;;;;;;;;;;;;;;5108899;28;20018;-47
2023/12/01 11:04:26;;;;;;;;;;;;;;;;;;5105583;28;19927;-52
2023/12/01 11:06:51;;;;;;;;;;;;;;;;;;5101291;28;20012;-48
2023/12/01 11:09:17;;;;;;;;;;;;;;;;;;5102692;28;20010;-47
2023/12/01 11:11:42;;;;;;;;;;;;;;;;;;5101790;28;19928;-46
2023/12/01 11:14:08;;;;;;;;;;;;;;;;;;5098486;28;19942;-50
2023/12/01 11:16:33;;;;;;;;;;;;;;;;;;5102595;28;20423;-49
2023/12/01 11:18:59;;;;;;;;;;;;;;;;;;5099765;28;20438;-45
2023/12/01 11:21:24;;;;;;;;;;;;;;;;;;5098159;28;20378;-46
2023/12/01 11:23:50;;;;;;;;;;;;;;;;;;5101786;28;20022;-47
2023/12/01 11:26:16;;;;;;;;;;;;;;;;;;5096561;28;20013;-47
2023/12/01 11:31:20;;;;;;;;;;;;;;;;;;5154950;27;20019;-49
2023/12/01 11:33:46;;;;;;;;;;;;;;;;;;5163840;27;20111;-44
2023/12/01 11:36:12;;;;;;;;;;;;;;;;;;5146151;27;20023;-48
2023/12/01 11:38:37;;;;;;;;;;;;;;;;;;5131421;27;20030;-50
2023/12/01 11:41:03;;;;;;;;;;;;;;;;;;5135951;27;20018;-45
2023/12/01 11:43:30;;;;;;;;;;;;;;;;;;5135387;27;19931;-50
2023/12/01 11:46:03;;;;;;;;;;;;;;;;;;5134780;27;20371;-47
2023/12/01 11:48:29;;;;;;;;;;;;;;;;;;5132327;27;19938;-47
2023/12/01 11:50:54;;;;;;;;;;;;;;;;;;5130935;27;19923;-48
2023/12/01 11:53:20;;;;;;;;;;;;;;;;;;5139096;27;20010;-47
2023/12/01 11:55:45;;;;;;;;;;;;;;;;;;5136622;27;20499;-51
2023/12/01 11:58:11;;;;;;;;;;;;;;;;;;5140327;27;19966;-47
2023/12/01 12:00:36;;;;;;;;;;;;;;;;;;5136831;27;20000;-58
2023/12/01 12:03:02;;;;;;;;;;;;;;;;;;5141810;27;20275;-50
2023/12/01 12:05:28;;;;;;;;;;;;;;;;;;5130255;27;19983;-55
2023/12/01 12:07:53;;;;;;;;;;;;;;;;;;5140688;27;20358;-47
2023/12/01 12:10:19;;;;;;;;;;;;;;;;;;5142181;27;19931;-50
2023/12/01 12:12:45;;;;;;;;;;;;;;;;;;5144423;27;20010;-50
2023/12/01 12:15:13;;;;;;;;;;;;;;;;;;5145389;27;19923;-47
2023/12/01 12:17:39;;;;;;;;;;;;;;;;;;5139564;27;19972;-48
2023/12/01 12:20:05;;;;;;;;;;;;;;;;;;5141585;27;19953;-47
2023/12/01 12:22:37;;;;;;;;;;;;;;;;;;5141804;27;20382;-48
2023/12/01 12:25:03;;;;;;;;;;;;;;;;;;5141719;27;19959;-49
2023/12/01 12:27:28;;;;;;;;;;;;;;;;;;5134433;27;19924;-49
2023/12/01 12:29:54;;;;;;;;;;;;;;;;;;5133413;27;19923;-48
2023/12/01 12:32:20;;;;;;;;;;;;;;;;;;5135832;27;19923;-48
2023/12/01 12:34:45;;;;;;;;;;;;;;;;;;5131204;27;19978;-47
2023/12/01 12:37:11;;;;;;;;;;;;;;;;;;5129327;27;20409;-49
2023/12/01 12:39:36;;;;;;;;;;;;;;;;;;5134983;27;19963;-45
2023/12/01 12:42:02;;;;;;;;;;;;;;;;;;5131235;27;19971;-46
2023/12/01 12:44:29;;;;;;;;;;;;;;;;;;5133038;28;19923;-43
2023/12/01 12:46:55;;;;;;;;;;;;;;;;;;5131644;28;19924;-43
2023/12/01 12:49:20;;;;;;;;;;;;;;;;;;5133585;28;20289;-48
2023/12/01 12:51:46;;;;;;;;;;;;;;;;;;5134454;28;19924;-46
2023/12/01 12:54:12;;;;;;;;;;;;;;;;;;5127444;28;19958;-49
2023/12/01 12:56:37;;;;;;;;;;;;;;;;;;5130034;28;19934;-50
2023/12/01 12:59:04;;;;;;;;;;;;;;;;;;5124036;28;19924;-50
2023/12/01 13:01:30;;;;;;;;;;;;;;;;;;5118645;28;19930;-43
2023/12/01 13:03:56;;;;;;;;;;;;;;;;;;5129983;27;19932;-46
2023/12/01 13:06:22;;;;;;;;;;;;;;;;;;5126495;27;19988;-47
2023/12/01 13:08:48;;;;;;;;;;;;;;;;;;5129267;28;19927;-48
2023/12/01 13:11:13;;;;;;;;;;;;;;;;;;5133260;28;20277;-48
2023/12/01 13:13:39;;;;;;;;;;;;;;;;;;5134455;28;19927;-48
2023/12/01 13:16:04;;;;;;;;;;;;;;;;;;5130937;28;19923;-57
2023/12/01 13:18:30;;;;;;;;;;;;;;;;;;5123760;28;20093;-52
2023/12/01 13:20:55;;;;;;;;;;;;;;;;;;5134554;28;19923;-47
2023/12/01 13:23:23;;;;;;;;;;;;;;;;;;5134637;28;19927;-47
2023/12/01 13:25:48;;;;;;;;;;;;;;;;;;5134274;28;20416;-48
2023/12/01 13:28:14;;;;;;;;;;;;;;;;;;5134598;28;19930;-48
2023/12/01 13:30:39;;;;;;;;;;;;;;;;;;5134384;28;19943;-45
2023/12/01 13:33:06;;;;;;;;;;;;;;;;;;5134526;28;20375;-46
2023/12/01 13:35:33;;;;;;;;;;;;;;;;;;5134769;28;19923;-47
2023/12/01 13:37:58;;;;;;;;;;;;;;;;;;5114297;28;19953;-46
2023/12/01 13:40:24;;;;;;;;;;;;;;;;;;5111851;28;19959;-45
2023/12/01 13:42:49;;;;;;;;;;;;;;;;;;5112945;28;20018;-48
2023/12/01 13:45:15;;;;;;;;;;;;;;;;;;5122624;28;19923;-46
2023/12/01 13:47:40;;;;;;;;;;;;;;;;;;5132588;28;19930;-47
2023/12/01 13:50:06;;;;;;;;;;;;;;;;;;5126017;28;20031;-46
2023/12/01 13:52:32;;;;;;;;;;;;;;;;;;5133358;27;20022;-45
2023/12/01 13:54:57;;;;;;;;;;;;;;;;;;5134479;28;19924;-47
2023/12/01 13:57:23;;;;;;;;;;;;;;;;;;5134527;28;20010;-45
2023/12/01 13:59:49;;;;;;;;;;;;;;;;;;5134673;28;19963;-46
2023/12/01 14:02:14;;;;;;;;;;;;;;;;;;5134319;28;20329;-46
2023/12/01 14:04:39;;;;;;;;;;;;;;;;;;5133985;28;19973;-45
2023/12/01 14:07:05;;;;;;;;;;;;;;;;;;5133440;28;19928;-41
2023/12/01 14:09:31;;;;;;;;;;;;;;;;;;5133463;28;20417;-46
2023/12/01 14:11:56;;;;;;;;;;;;;;;;;;5134382;28;20328;-45
2023/12/01 14:14:21;;;;;;;;;;;;;;;;;;5133820;28;19989;-44
2023/12/01 14:16:47;;;;;;;;;;;;;;;;;;5134235;28;20012;-45
2023/12/01 14:19:13;;;;;;;;;;;;;;;;;;5134119;28;20302;-45
2023/12/01 14:21:38;;;;;;;;;;;;;;;;;;5133763;28;20007;-45
2023/12/01 14:24:05;;;;;;;;;;;;;;;;;;5134204;27;19971;-46
2023/12/01 14:26:30;;;;;;;;;;;;;;;;;;5133531;28;19974;-45
2023/12/01 14:28:55;;;;;;;;;;;;;;;;;;5133478;28;20022;-47
2023/12/01 14:31:21;;;;;;;;;;;;;;;;;;5134020;28;19958;-46
2023/12/01 14:33:46;;;;;;;;;;;;;;;;;;5133639;28;20006;-45
2023/12/01 14:36:12;;;;;;;;;;;;;;;;;;5133854;28;19923;-45
2023/12/01 14:38:37;;;;;;;;;;;;;;;;;;5133586;28;19990;-45
2023/12/01 14:41:03;;;;;;;;;;;;;;;;;;5133938;28;19970;-44
2023/12/01 14:43:28;;;;;;;;;;;;;;;;;;5133264;28;19923;-43
2023/12/01 14:45:54;;;;;;;;;;;;;;;;;;5132135;28;19982;-46
2023/12/01 14:48:19;;;;;;;;;;;;;;;;;;5133337;28;20022;-47
2023/12/01 14:50:49;;;;;;;;;;;;;;;;;;5133290;28;20465;-47
2023/12/01 14:53:15;;;;;;;;;;;;;;;;;;5132820;28;19924;-45
2023/12/01 14:55:40;;;;;;;;;;;;;;;;;;5133771;28;19946;-44
2023/12/01 14:58:06;;;;;;;;;;;;;;;;;;5133782;28;19999;-47
2023/12/01 15:00:31;;;;;;;;;;;;;;;;;;5133942;28;19951;-47
2023/12/01 15:02:56;;;;;;;;;;;;;;;;;;5132938;28;20018;-45
2023/12/01 15:05:22;;;;;;;;;;;;;;;;;;5130128;27;19970;-45
2023/12/01 15:07:47;;;;;;;;;;;;;;;;;;5132815;28;20006;-45
2023/12/01 15:10:13;;;;;;;;;;;;;;;;;;5132706;28;19924;-46
2023/12/01 15:12:38;;;;;;;;;;;;;;;;;;5133340;28;19959;-47
2023/12/01 15:15:04;;;;;;;;;;;;;;;;;;5132787;28;19998;-45
2023/12/01 15:17:29;;;;;;;;;;;;;;;;;;5133333;28;19962;-45
2023/12/01 15:19:55;;;;;;;;;;;;;;;;;;5133172;28;20014;-48
2023/12/01 15:22:20;;;;;;;;;;;;;;;;;;5132805;28;20387;-42
2023/12/01 15:24:46;;;;;;;;;;;;;;;;;;5132976;28;19988;-46
2023/12/01 15:27:11;;;;;;;;;;;;;;;;;;5132544;28;20386;-46
2023/12/01 15:29:37;;;;;;;;;;;;;;;;;;5131933;28;20385;-47
2023/12/01 15:32:02;;;;;;;;;;;;;;;;;;5133182;28;19930;-46
2023/12/01 15:34:28;;;;;;;;;;;;;;;;;;5133165;28;20422;-47
2023/12/01 15:36:53;;;;;;;;;;;;;;;;;;5133017;28;20014;-43
2023/12/01 15:39:19;;;;;;;;;;;;;;;;;;5132415;28;19931;-44
2023/12/01 15:41:44;;;;;;;;;;;;;;;;;;5132927;28;20015;-43
2023/12/01 15:44:10;;;;;;;;;;;;;;;;;;5132614;28;19986;-44
2023/12/01 15:46:35;;;;;;;;;;;;;;;;;;5132405;28;19969;-46
2023/12/01 15:49:01;;;;;;;;;;;;;;;;;;5132474;28;20029;-46
2023/12/01 15:51:26;;;;;;;;;;;;;;;;;;5132575;28;19929;-44
2023/12/01 15:53:52;;;;;;;;;;;;;;;;;;5132431;28;19963;-45
2023/12/01 15:56:17;;;;;;;;;;;;;;;;;;5133028;28;19924;-44
2023/12/01 15:58:43;;;;;;;;;;;;;;;;;;5132923;28;19970;-44
2023/12/01 16:01:08;;;;;;;;;;;;;;;;;;5133094;28;19959;-45
2023/12/01 16:03:34;;;;;;;;;;;;;;;;;;5132750;28;20278;-44
2023/12/01 16:05:59;;;;;;;;;;;;;;;;;;5131952;27;19959;-46
2023/12/01 16:08:26;;;;;;;;;;;;;;;;;;5131936;28;19923;-45
2023/12/01 16:10:52;;;;;;;;;;;;;;;;;;5132150;28;20018;-43
2023/12/01 16:13:17;;;;;;;;;;;;;;;;;;5131932;28;19936;-44
2023/12/01 16:15:43;;;;;;;;;;;;;;;;;;5132405;27;19927;-46
2023/12/01 16:18:08;;;;;;;;;;;;;;;;;;5135977;28;19931;-46
2023/12/01 16:20:33;;;;;;;;;;;;;;;;;;5136372;28;19924;-46
2023/12/01 16:22:59;;;;;;;;;;;;;;;;;;5136209;28;20022;-45
2023/12/01 16:25:25;;;;;;;;;;;;;;;;;;5135862;28;19924;-46
2023/12/01 16:27:50;;;;;;;;;;;;;;;;;;5135651;28;19927;-44
2023/12/01 16:30:15;;;;;;;;;;;;;;;;;;5135526;28;20010;-46
2023/12/01 16:32:41;;;;;;;;;;;;;;;;;;5136273;28;20006;-44
2023/12/01 16:35:06;;;;;;;;;;;;;;;;;;5135916;28;20014;-43
2023/12/01 16:37:34;;;;;;;;;;;;;;;;;;5135935;28;19969;-45